Time;durP1;ratioP1;P1;durP2;ratioP2;P2;SDS_P1;SDS_P2;PMS_P1;PMS_P2;Temp;Humidity;BMP_temperature;BMP_pressure;BME280_temperature;BME280_humidity;BME280_pressure;Samples;Min_cycle;Max_cycle;Signal;HPM_P1;HPM_P2
2022/08/29 00:00:51;;;;;;;86.05;43.33;;;;;;;28.67;29.92;99049.94;4980315;28;20046;-74
2022/08/29 00:03:17;;;;;;;76.03;42.05;;;;;;;28.67;29.93;99046.38;4996454;28;20104;-74
2022/08/29 00:05:43;;;;;;;77.72;42.78;;;;;;;28.66;29.83;99047.50;4996259;28;20037;-73
2022/08/29 00:08:09;;;;;;;73.22;41.50;;;;;;;28.64;29.89;99042.31;4996730;28;20052;-74
2022/08/29 00:10:36;;;;;;;78.57;40.78;;;;;;;28.70;29.87;99041.16;4996888;28;20045;-74
2022/08/29 00:13:04;;;;;;;73.57;42.28;;;;;;;28.67;29.75;99039.00;4980082;28;20049;-74
2022/08/29 00:15:29;;;;;;;78.43;41.35;;;;;;;28.43;30.08;99013.53;5013050;28;20459;-75
2022/08/29 00:17:55;;;;;;;79.53;42.15;;;;;;;28.51;30.09;99031.25;4980407;28;20037;-75
2022/08/29 00:20:24;;;;;;;78.38;41.25;;;;;;;28.55;30.09;99027.66;4996778;28;20110;-74
2022/08/29 00:22:49;;;;;;;74.78;40.53;;;;;;;28.29;30.39;99015.34;5014877;28;20052;-74
2022/08/29 00:25:15;;;;;;;77.65;42.20;;;;;;;28.30;30.32;99016.13;5003986;28;20053;-74
2022/08/29 00:27:41;;;;;;;75.03;42.33;;;;;;;28.25;30.31;99011.53;5000678;28;20068;-74
2022/08/29 00:30:08;;;;;;;74.97;42.47;;;;;;;28.24;30.41;99004.44;5000465;28;20067;-75
2022/08/29 00:32:35;;;;;;;84.18;43.25;;;;;;;28.26;30.36;99006.88;4999843;28;20418;-74
2022/08/29 00:35:06;;;;;;;78.90;42.88;;;;;;;28.24;30.24;99004.44;4999917;28;20046;-74
2022/08/29 00:37:32;;;;;;;72.75;43.70;;;;;;;28.13;30.68;99004.81;5032686;28;20049;-72
2022/08/29 00:39:58;;;;;;;75.43;44.95;;;;;;;28.11;30.48;98994.19;4999661;28;20037;-74
2022/08/29 00:42:25;;;;;;;73.28;43.65;;;;;;;28.06;30.29;98986.06;4984093;28;20052;-73
2022/08/29 00:44:51;;;;;;;76.40;43.60;;;;;;;27.94;30.70;98983.69;4999560;28;20046;-74
2022/08/29 00:47:21;;;;;;;75.75;45.58;;;;;;;27.95;30.36;98987.22;4999925;28;20464;-74
2022/08/29 00:49:48;;;;;;;;;;;;;;;28.00;30.42;98988.00;5000258;28;20065;-75
2022/08/29 00:52:25;;;;;;;82.68;43.22;;;;;;;27.93;30.38;98979.34;5015898;28;20438;-75
2022/08/29 00:54:53;;;;;;;80.78;44.50;;;;;;;27.82;30.48;98966.00;5015829;28;20056;-75
2022/08/29 00:57:20;;;;;;;74.97;44.35;;;;;;;27.84;30.63;98961.91;4999504;28;20041;-74
2022/08/29 00:59:46;;;;;;;81.20;45.72;;;;;;;27.71;30.73;98950.81;5015708;28;20056;-74
2022/08/29 01:02:14;;;;;;;75.45;45.05;;;;;;;27.70;30.60;98954.66;5031903;28;20049;-75
2022/08/29 01:04:43;;;;;;;86.20;46.63;;;;;;;27.72;30.78;98958.72;4999485;28;20456;-75
2022/08/29 01:07:09;;;;;;;76.72;45.22;;;;;;;27.80;30.71;98951.84;5016483;28;20540;-75
2022/08/29 01:09:40;;;;;;;78.85;45.95;;;;;;;27.90;30.41;98952.59;4999206;28;20052;-75
2022/08/29 01:12:15;;;;;;;82.13;46.85;;;;;;;27.81;30.22;98943.38;5032239;28;20497;-75
2022/08/29 01:14:52;;;;;;;79.78;45.67;;;;;;;27.83;30.26;98943.88;4984100;28;20254;-75
2022/08/29 01:17:29;;;;;;;79.85;45.63;;;;;;;27.78;30.30;98934.94;4999125;28;20049;-75
2022/08/29 01:19:59;;;;;;;71.93;43.92;;;;;;;27.70;30.61;98924.63;5031979;28;20045;-75
2022/08/29 01:22:40;;;;;;;81.53;44.57;;;;;;;27.72;30.63;98927.91;5031894;28;20041;-74
2022/08/29 01:25:22;;;;;;;77.13;45.35;;;;;;;27.51;30.50;98926.41;4998683;28;20037;-74
2022/08/29 01:27:54;;;;;;;82.18;44.10;;;;;;;27.60;30.65;98922.81;4998862;28;20386;-74
2022/08/29 01:30:20;;;;;;;73.47;42.47;;;;;;;27.47;30.83;98914.47;5015172;28;20453;-75
2022/08/29 01:32:46;;;;;;;70.50;41.95;;;;;;;27.55;30.70;98920.13;5014898;28;20049;-75
2022/08/29 01:35:11;;;;;;;74.80;42.53;;;;;;;27.58;30.79;98919.56;4999090;28;20044;-76
2022/08/29 01:37:41;;;;;;;68.45;40.85;;;;;;;27.67;30.70;98933.41;4981471;28;20417;-76
2022/08/29 01:40:08;;;;;;;76.63;39.85;;;;;;;27.51;30.79;98920.97;5031492;28;20124;-77
2022/08/29 01:42:35;;;;;;;66.47;38.65;;;;;;;27.49;30.98;98913.06;5031464;28;20104;-77
2022/08/29 01:45:01;;;;;;;70.40;37.70;;;;;;;27.64;30.73;98915.69;4998634;28;20136;-75
2022/08/29 01:47:33;;;;;;;60.75;35.80;;;;;;;27.87;30.52;98912.25;5014370;28;20513;-75
2022/08/29 01:49:58;;;;;;;;;;;;;;;27.99;29.94;98906.38;5030563;28;20045;-75
2022/08/29 01:52:24;;;;;;;64.18;36.17;;;;;;;27.73;30.26;98905.78;4997363;28;19940;-75
2022/08/29 01:54:50;;;;;;;63.70;33.63;;;;;;;27.62;30.30;98903.41;4981173;28;20390;-75
2022/08/29 01:57:17;;;;;;;69.97;35.25;;;;;;;27.71;30.56;98907.97;4997019;28;20075;-75
2022/08/29 01:59:44;;;;;;;58.13;34.70;;;;;;;27.64;30.37;98893.88;5014418;28;20128;-75
2022/08/29 02:02:22;;;;;;;57.08;34.47;;;;;;;27.71;30.58;98904.44;4996669;28;20045;-74
2022/08/29 02:04:48;;;;;;;57.85;32.28;;;;;;;27.57;30.74;98906.22;4998114;28;20041;-74
2022/08/29 02:07:20;;;;;;;58.45;31.52;;;;;;;27.80;30.24;98902.72;4982533;28;20049;-74
2022/08/29 02:09:46;;;;;;;54.38;32.47;;;;;;;27.81;30.29;98893.44;5030808;28;20037;-73
2022/08/29 02:12:13;;;;;;;55.72;32.00;;;;;;;27.86;30.29;98890.66;5014569;28;20042;-74
2022/08/29 02:14:39;;;;;;;54.42;31.30;;;;;;;27.78;30.29;98877.63;4981770;28;20103;-76
2022/08/29 02:17:06;;;;;;;47.92;31.10;;;;;;;27.88;29.98;98866.63;4981909;28;20891;-75
2022/08/29 02:19:33;;;;;;;49.00;28.75;;;;;;;27.80;30.07;98857.13;5014175;28;20045;-77
2022/08/29 02:22:01;;;;;;;54.70;30.13;;;;;;;27.71;29.97;98877.13;5014146;28;20128;-76
2022/08/29 02:24:28;;;;;;;46.00;28.17;;;;;;;27.60;30.05;98867.44;5014323;28;20045;-75
2022/08/29 02:26:55;;;;;;;54.78;28.15;;;;;;;27.66;30.11;98866.28;5014090;28;20132;-74
2022/08/29 02:29:21;;;;;;;51.80;29.33;;;;;;;27.46;30.20;98875.44;4997851;28;20553;-74
2022/08/29 02:31:47;;;;;;;51.15;28.50;;;;;;;27.40;30.34;98890.22;4981502;28;20037;-75
2022/08/29 02:34:13;;;;;;;46.05;27.55;;;;;;;27.39;30.41;98879.59;4981887;28;20058;-75
2022/08/29 02:36:39;;;;;;;47.65;28.38;;;;;;;27.41;30.32;98863.78;5014018;28;20098;-75
2022/08/29 02:39:05;;;;;;;57.15;29.13;;;;;;;27.35;30.40;98859.47;4997558;28;20048;-74
2022/08/29 02:41:31;;;;;;;47.05;27.75;;;;;;;27.34;30.57;98872.28;4997455;28;20053;-74
2022/08/29 02:43:57;;;;;;;55.90;27.90;;;;;;;27.40;30.42;98862.16;4997430;28;20053;-74
2022/08/29 02:46:24;;;;;;;47.28;27.55;;;;;;;27.47;30.41;98849.00;4997265;28;20483;-74
2022/08/29 02:48:50;;;;;;;47.92;27.60;;;;;;;27.39;30.33;98844.97;5013670;28;20041;-74
2022/08/29 02:51:24;;;;;;;43.08;26.50;;;;;;;27.51;30.20;98839.13;4981512;28;20144;-75
2022/08/29 02:53:50;;;;;;;42.13;26.58;;;;;;;27.38;30.21;98851.53;4996976;28;20088;-74
2022/08/29 02:56:18;;;;;;;45.72;26.40;;;;;;;27.50;30.11;98851.16;4981474;28;20207;-75
2022/08/29 02:58:45;;;;;;;43.20;26.20;;;;;;;27.40;30.26;98843.88;5013830;28;20053;-74
2022/08/29 03:01:11;;;;;;;46.83;26.40;;;;;;;27.48;30.06;98851.44;5013172;28;20048;-74
2022/08/29 03:03:37;;;;;;;45.88;26.17;;;;;;;27.50;30.12;98851.16;5029793;28;20053;-74
2022/08/29 03:06:03;;;;;;;44.03;24.95;;;;;;;27.52;30.09;98846.22;4997032;28;20053;-74
2022/08/29 03:08:29;;;;;;;40.25;23.48;;;;;;;27.42;30.12;98838.13;4980810;28;20064;-75
2022/08/29 03:10:55;;;;;;;39.58;22.88;;;;;;;27.48;29.88;98848.72;4996979;28;20041;-73
2022/08/29 03:13:21;;;;;;;42.35;22.77;;;;;;;27.48;30.01;98850.63;4997009;28;20056;-74
2022/08/29 03:15:47;;;;;;;41.90;22.80;;;;;;;27.55;30.11;98854.66;4997355;28;20045;-76
2022/08/29 03:18:13;;;;;;;39.38;23.27;;;;;;;27.52;29.84;98855.22;4980942;28;20531;-74
2022/08/29 03:20:40;;;;;;;43.92;22.13;;;;;;;27.61;29.85;98855.41;4980732;28;20049;-74
2022/08/29 03:23:06;;;;;;;38.67;21.17;;;;;;;27.48;29.89;98829.63;4997568;28;20045;-75
2022/08/29 03:25:32;;;;;;;42.15;21.73;;;;;;;27.57;29.87;98838.81;5015190;28;20049;-74
2022/08/29 03:27:58;;;;;;;38.95;22.42;;;;;;;27.64;29.82;98847.47;4982278;28;20051;-74
2022/08/29 03:30:25;;;;;;;41.63;21.27;;;;;;;27.79;29.62;98850.06;5013154;28;20045;-74
2022/08/29 03:32:51;;;;;;;37.08;21.25;;;;;;;27.86;29.92;98850.50;5012899;28;20100;-73
2022/08/29 03:35:18;;;;;;;33.80;20.15;;;;;;;27.97;29.67;98864.91;5013276;28;20049;-74
2022/08/29 03:37:44;;;;;;;41.05;21.38;;;;;;;27.95;29.47;98861.66;5012823;28;20057;-74
2022/08/29 03:40:12;;;;;;;36.35;21.20;;;;;;;28.03;29.54;98844.66;5012726;28;20038;-74
2022/08/29 03:42:38;;;;;;;34.80;22.05;;;;;;;28.06;29.37;98830.44;5029057;28;20034;-74
2022/08/29 03:45:08;;;;;;;36.25;20.98;;;;;;;28.11;29.19;98824.09;4996477;28;20139;-75
2022/08/29 03:47:34;;;;;;;38.45;20.42;;;;;;;27.99;29.25;98825.31;4980306;28;20049;-73
2022/08/29 03:50:00;;;;;;;34.95;21.08;;;;;;;27.98;29.27;98823.66;4996553;28;20095;-74
2022/08/29 03:52:26;;;;;;;34.30;20.88;;;;;;;27.96;29.52;98823.16;5012676;28;20049;-74
2022/08/29 03:54:52;;;;;;;38.47;21.58;;;;;;;28.10;29.74;98812.34;5012677;28;20405;-74
2022/08/29 03:57:17;;;;;;;35.75;20.67;;;;;;;28.14;29.26;98804.41;4980384;28;20041;-74
2022/08/29 03:59:43;;;;;;;39.30;21.63;;;;;;;28.13;29.50;98811.75;4980027;28;20529;-73
2022/08/29 04:02:09;;;;;;;40.55;21.70;;;;;;;28.15;29.70;98806.84;4983874;28;20097;-74
2022/08/29 04:07:19;;;;;;;38.47;21.15;;;;;;;28.31;29.25;98789.13;5016747;28;20145;-74
2022/08/29 04:09:45;;;;;;;33.17;20.83;;;;;;;28.35;29.29;98786.63;5000041;28;20128;-74
2022/08/29 04:12:12;;;;;;;39.88;20.77;;;;;;;28.37;29.22;98777.03;5033026;28;20049;-75
2022/08/29 04:14:38;;;;;;;39.85;21.77;;;;;;;28.35;29.08;98749.22;5016528;28;20107;-74
2022/08/29 04:17:05;;;;;;;41.28;20.83;;;;;;;28.44;29.20;98768.47;5016184;28;20591;-74
2022/08/29 04:19:32;;;;;;;33.72;20.42;;;;;;;28.39;29.21;98777.56;5032726;28;20631;-74
2022/08/29 04:21:57;;;;;;;42.83;19.92;;;;;;;28.40;29.15;98762.00;4983583;28;20087;-73
2022/08/29 04:24:24;;;;;;;38.20;19.45;;;;;;;28.46;29.03;98766.28;5016151;28;20045;-73
2022/08/29 04:26:50;;;;;;;33.72;19.73;;;;;;;28.46;28.98;98766.28;4999954;28;20156;-74
2022/08/29 04:29:15;;;;;;;30.38;19.55;;;;;;;28.35;29.14;98771.06;5032801;28;20124;-74
2022/08/29 04:31:42;;;;;;;39.03;20.23;;;;;;;28.37;29.22;98765.31;4999587;28;20505;-75
2022/08/29 04:34:10;;;;;;;38.22;18.02;;;;;;;28.44;29.48;98763.84;4999863;28;20049;-74
2022/08/29 04:36:37;;;;;;;39.90;20.88;;;;;;;28.41;29.46;98769.06;5015843;28;20524;-75
2022/08/29 04:39:04;;;;;;;38.83;19.90;;;;;;;28.46;29.55;98760.81;5015974;28;20527;-76
2022/08/29 04:41:30;;;;;;;45.30;21.60;;;;;;;28.48;28.99;98773.09;5032216;28;20045;-75
2022/08/29 04:43:56;;;;;;;43.53;20.92;;;;;;;28.46;29.29;98767.06;4999313;28;20045;-75
2022/08/29 04:46:22;;;;;;;38.72;20.90;;;;;;;28.51;29.47;98764.31;4983026;28;20145;-74
2022/08/29 04:48:47;;;;;;;39.60;23.10;;;;;;;28.39;29.38;98779.47;4999135;28;20133;-74
2022/08/29 04:51:13;;;;;;;42.03;22.83;;;;;;;28.57;29.40;98779.50;4983078;28;20467;-76
2022/08/29 04:53:39;;;;;;;37.85;22.42;;;;;;;28.49;29.18;98793.84;5027693;28;20040;-73
2022/08/29 04:56:08;;;;;;;50.55;24.80;;;;;;;28.36;29.38;98804.63;5014072;28;20052;-74
2022/08/29 04:58:36;;;;;;;65.35;24.83;;;;;;;28.04;29.75;98778.03;5032969;28;20444;-73
2022/08/29 05:01:02;;;;;;;49.20;26.15;;;;;;;27.97;30.12;98793.91;4984722;28;20041;-77
2022/08/29 05:03:28;;;;;;;57.33;26.33;;;;;;;27.73;30.47;98793.91;5046874;28;20057;-76
2022/08/29 05:05:58;;;;;;;46.72;26.13;;;;;;;28.05;29.96;98782.38;5016971;28;20044;-78
2022/08/29 05:08:25;;;;;;;50.75;25.67;;;;;;;28.20;29.80;98784.09;5000337;28;20105;-74
2022/08/29 05:10:51;;;;;;;53.67;26.08;;;;;;;28.19;29.95;98766.91;5009137;28;20454;-77
2022/08/29 05:13:17;;;;;;;46.25;25.45;;;;;;;28.48;30.13;98772.25;4995805;28;20042;-79
2022/08/29 05:15:44;;;;;;;56.03;27.92;;;;;;;28.07;30.28;98780.16;4997567;28;20034;-77
2022/08/29 05:18:13;;;;;;;57.65;27.50;;;;;;;28.51;29.80;98753.38;5014106;28;20041;-72
2022/08/29 05:20:43;;;;;;;54.22;27.98;;;;;;;28.73;29.45;98769.16;4983901;28;20048;-75
2022/08/29 05:23:09;;;;;;;55.65;28.30;;;;;;;28.42;29.58;98757.84;5015131;28;20523;-78
2022/08/29 05:25:40;;;;;;;54.03;27.95;;;;;;;28.61;29.44;98775.09;5005573;28;20516;-75
2022/08/29 05:28:06;;;;;;;57.80;29.05;;;;;;;28.24;30.01;98785.13;5021801;28;20067;-78
2022/08/29 05:30:37;;;;;;;60.70;30.58;;;;;;;28.02;30.06;98789.22;4988345;28;20094;-76
2022/08/29 05:33:05;;;;;;;57.60;30.40;;;;;;;27.70;31.03;98772.66;5013723;28;20045;-76
2022/08/29 05:35:32;;;;;;;60.33;30.27;;;;;;;27.85;30.62;98777.13;5030122;28;20203;-74
2022/08/29 05:37:58;;;;;;;56.22;30.77;;;;;;;27.89;30.40;98756.38;4997677;28;20409;-75
2022/08/29 05:40:24;;;;;;;52.72;30.30;;;;;;;27.89;30.50;98748.97;5014196;28;20124;-78
2022/08/29 05:42:50;;;;;;;56.50;31.05;;;;;;;28.25;29.84;98764.94;4997713;28;20178;-75
2022/08/29 05:45:19;;;;;;;54.15;30.80;;;;;;;28.29;29.83;98750.41;5020592;28;20044;-75
2022/08/29 05:47:47;;;;;;;55.58;30.65;;;;;;;28.02;30.20;98755.66;4980192;28;20477;-74
2022/08/29 05:50:15;;;;;;;59.42;32.38;;;;;;;28.09;30.13;98766.22;5009697;28;20087;-75
2022/08/29 05:52:42;;;;;;;62.55;32.85;;;;;;;28.01;30.54;98767.69;4978504;28;20169;-74
2022/08/29 05:55:08;;;;;;;64.18;33.80;;;;;;;27.88;30.19;98773.84;5027973;28;20547;-74
2022/08/29 05:57:33;;;;;;;61.33;31.65;;;;;;;27.96;30.19;98779.47;4995381;28;20041;-74
2022/08/29 06:00:00;;;;;;;64.90;33.03;;;;;;;28.18;29.74;98765.28;5049429;28;20053;-77
2022/08/29 06:02:26;;;;;;;59.72;32.92;;;;;;;28.14;29.92;98775.16;4998039;28;20057;-72
2022/08/29 06:04:56;;;;;;;60.65;32.80;;;;;;;28.17;29.52;98768.31;5015845;28;20463;-74
2022/08/29 06:07:21;;;;;;;60.97;34.08;;;;;;;27.94;30.18;98767.22;4997435;28;20045;-76
2022/08/29 06:09:51;;;;;;;66.05;32.70;;;;;;;27.90;30.44;98769.72;5029118;28;20041;-73
2022/08/29 06:12:18;;;;;;;60.28;33.33;;;;;;;28.06;30.21;98769.53;5013219;28;20049;-75
2022/08/29 06:14:44;;;;;;;69.07;34.30;;;;;;;27.59;30.73;98773.03;4980553;28;20132;-74
2022/08/29 06:17:10;;;;;;;58.58;33.85;;;;;;;27.38;31.49;98772.44;5013181;28;20525;-74
2022/08/29 06:19:38;;;;;;;69.50;33.88;;;;;;;27.26;31.95;98774.72;5029838;28;20389;-73
2022/08/29 06:22:06;;;;;;;61.70;33.75;;;;;;;27.20;32.09;98766.88;5013466;28;20569;-75
2022/08/29 06:24:33;;;;;;;71.35;34.83;;;;;;;27.26;32.15;98772.00;4997645;28;20033;-74
2022/08/29 06:27:00;;;;;;;65.18;34.60;;;;;;;27.63;31.92;98768.66;5029901;28;20047;-73
2022/08/29 06:29:26;;;;;;;65.45;33.33;;;;;;;27.84;30.92;98765.41;5029073;28;20577;-74
2022/08/29 06:31:55;;;;;;;64.90;33.67;;;;;;;27.63;31.25;98768.66;5029916;28;20548;-74
2022/08/29 06:34:22;;;;;;;68.88;36.38;;;;;;;27.18;32.28;98769.88;5013066;28;20049;-74
2022/08/29 06:36:50;;;;;;;68.40;33.63;;;;;;;27.14;32.31;98757.91;5029539;28;20505;-72
2022/08/29 06:39:16;;;;;;;63.90;33.08;;;;;;;27.06;32.05;98768.63;4996710;28;20064;-74
2022/08/29 06:41:42;;;;;;;65.30;34.60;;;;;;;27.18;32.17;98760.88;4994925;28;20152;-74
2022/08/29 06:44:12;;;;;;;68.68;33.60;;;;;;;27.29;31.92;98759.72;4978760;28;20048;-73
2022/08/29 06:46:41;;;;;;;63.72;33.58;;;;;;;27.71;31.41;98768.00;4978027;28;20144;-73
2022/08/29 06:49:10;;;;;;;66.32;33.10;;;;;;;27.86;31.13;98759.66;5010386;28;20038;-72
2022/08/29 06:51:38;;;;;;;67.05;33.85;;;;;;;28.48;30.56;98773.09;5006971;28;20045;-73
2022/08/29 06:54:06;;;;;;;65.90;34.47;;;;;;;28.66;30.09;98763.28;4997119;28;20055;-73
2022/08/29 06:56:32;;;;;;;61.10;33.10;;;;;;;28.78;29.58;98763.63;5014361;28;20500;-71
2022/08/29 06:58:58;;;;;;;49.13;28.80;;;;;;;28.90;28.60;98767.53;5015526;28;20500;-70
2022/08/29 07:01:24;;;;;;;57.25;30.73;;;;;;;29.39;28.60;98758.81;4999506;28;20133;-73
2022/08/29 07:03:55;;;;;;;59.05;28.75;;;;;;;29.89;27.38;98770.75;5015799;28;20550;-73
2022/08/29 07:06:22;;;;;;;61.95;27.48;;;;;;;30.09;26.92;98746.47;5032451;28;20055;-71
2022/08/29 07:08:49;;;;;;;55.70;27.38;;;;;;;30.52;26.11;98760.66;5015787;28;20103;-72
2022/08/29 07:11:15;;;;;;;40.67;23.08;;;;;;;30.57;25.43;98771.50;4998021;28;20091;-74
2022/08/29 07:13:41;;;;;;;42.92;22.50;;;;;;;30.63;25.17;98779.28;4996420;28;20041;-73
2022/08/29 07:16:11;;;;;;;41.58;20.05;;;;;;;30.59;24.65;98752.81;5006129;28;20962;-74
2022/08/29 07:18:37;;;;;;;33.75;18.10;;;;;;;30.75;24.21;98770.56;5038594;28;20086;-73
2022/08/29 07:21:08;;;;;;;43.95;17.85;;;;;;;30.23;24.23;98763.75;4995144;28;20045;-73
2022/08/29 07:23:33;;;;;;;;;;;;;;;30.92;24.05;98770.72;5036715;28;20128;-72
2022/08/29 07:26:12;;;;;;;49.45;16.75;;;;;;;31.60;23.39;98773.13;4995638;28;19928;-74
2022/08/29 07:28:37;;;;;;;32.13;15.88;;;;;;;31.97;23.16;98764.41;5007189;28;20046;-75
2022/08/29 07:31:04;;;;;;;37.95;15.00;;;;;;;32.58;22.09;98764.25;4989086;28;20060;-74
2022/08/29 07:33:30;;;;;;;29.83;14.10;;;;;;;33.08;21.17;98759.09;4994908;28;20508;-76
2022/08/29 07:35:57;;;;;;;31.90;12.45;;;;;;;33.63;20.55;98768.25;5044558;28;20116;-74
2022/08/29 07:38:23;;;;;;;29.73;9.90;;;;;;;33.65;20.23;98785.22;4995669;28;20047;-72
2022/08/29 07:40:57;;;;;;;27.55;9.95;;;;;;;34.57;18.85;98771.34;4992548;28;20497;-73
2022/08/29 07:43:22;;;;;;;27.27;8.52;;;;;;;35.31;18.15;98777.72;5005831;28;20040;-73
2022/08/29 07:45:48;;;;;;;19.70;8.00;;;;;;;35.30;17.65;98770.59;5019316;28;20565;-73
2022/08/29 07:48:14;;;;;;;24.00;9.60;;;;;;;37.04;17.46;98773.16;5005841;28;20041;-74
2022/08/29 07:50:43;;;;;;;22.35;8.38;;;;;;;39.26;14.96;98765.63;5005331;28;20060;-74
2022/08/29 07:53:08;;;;;;;22.40;6.60;;;;;;;38.05;14.93;98783.47;5019737;28;20045;-74
2022/08/29 07:55:35;;;;;;;17.08;6.28;;;;;;;38.39;14.88;98766.09;4994809;28;20051;-73
2022/08/29 07:58:03;;;;;;;27.60;8.27;;;;;;;40.25;13.70;98780.94;5036094;28;20823;-74
2022/08/29 08:00:29;;;;;;;22.02;5.63;;;;;;;39.93;13.27;98778.81;4989139;28;20510;-74
2022/08/29 08:02:55;;;;;;;19.50;9.02;;;;;;;39.03;14.93;98773.88;5022206;28;20064;-76
2022/08/29 08:05:21;;;;;;;28.77;5.72;;;;;;;40.32;13.57;98777.47;4988999;28;20600;-73
2022/08/29 08:07:48;;;;;;;23.33;5.47;;;;;;;40.93;13.21;98783.56;5021617;28;20048;-73
2022/08/29 08:10:16;;;;;;;24.80;5.40;;;;;;;42.23;12.14;98772.97;5003752;28;20489;-76
2022/08/29 08:12:46;;;;;;;21.83;4.75;;;;;;;42.99;11.53;98764.31;5018944;28;20615;-75
2022/08/29 08:15:13;;;;;;;16.55;4.82;;;;;;;43.68;10.77;98767.75;5002613;28;20045;-76
2022/08/29 08:17:42;;;;;;;16.85;4.45;;;;;;;45.01;9.89;98768.81;5020221;28;20048;-76
2022/08/29 08:20:08;;;;;;;23.07;4.67;;;;;;;44.43;10.08;98772.97;5022955;28;20045;-78
2022/08/29 08:22:35;;;;;;;15.82;4.50;;;;;;;46.17;9.25;98764.13;5012064;28;20284;-77
2022/08/29 08:25:01;;;;;;;30.17;4.47;;;;;;;47.75;8.35;98769.84;5005572;28;20053;-76
2022/08/29 08:27:28;;;;;;;23.35;4.15;;;;;;;46.94;8.55;98762.53;5011696;28;20411;-76
2022/08/29 08:29:54;;;;;;;27.85;4.38;;;;;;;45.76;9.19;98780.09;4979134;28;20045;-75
2022/08/29 08:32:19;;;;;;;24.98;4.00;;;;;;;45.65;9.70;98767.28;4978706;28;20045;-75
2022/08/29 08:34:45;;;;;;;26.67;4.10;;;;;;;44.40;10.13;98795.38;4995110;28;20048;-75
2022/08/29 08:37:11;;;;;;;23.23;4.15;;;;;;;43.49;11.02;98776.50;4978689;28;20104;-76
2022/08/29 08:39:37;;;;;;;20.83;4.00;;;;;;;43.59;11.23;98800.91;4978919;28;20041;-75
2022/08/29 08:42:19;;;;;;;34.03;4.30;;;;;;;43.05;11.45;98782.31;5027407;28;20049;-73
2022/08/29 08:45:00;;;;;;;37.13;4.03;;;;;;;41.14;13.56;98755.97;4994771;28;20049;-76
2022/08/29 08:47:31;;;;;;;24.75;3.70;;;;;;;39.87;14.42;98756.06;4997857;28;20053;-76
2022/08/29 08:50:13;;;;;;;28.77;4.05;;;;;;;38.26;16.32;98750.72;5015411;28;20110;-74
2022/08/29 08:53:03;;;;;;;30.67;4.40;;;;;;;37.50;17.28;98753.09;5017260;28;20048;-74
2022/08/29 08:55:53;;;;;;;52.75;4.68;;;;;;;36.74;18.17;98772.66;5017627;28;20605;-74
2022/08/29 08:58:24;;;;;;;59.15;5.70;;;;;;;36.36;18.51;98757.63;5034497;28;20048;-77
2022/08/29 09:01:07;;;;;;;45.85;4.47;;;;;;;35.21;19.34;98764.31;5050838;28;20564;-75
2022/08/29 09:03:52;;;;;;;33.92;4.32;;;;;;;34.59;20.18;98782.84;5017470;28;20115;-75
2022/08/29 09:06:57;;;;;;;28.42;4.28;;;;;;;33.66;21.58;98767.56;5001461;28;20052;-75
2022/08/29 09:09:35;;;;;;;26.42;4.13;;;;;;;34.02;21.39;98773.44;5017439;28;20087;-74
2022/08/29 09:12:18;;;;;;;27.20;4.57;;;;;;;33.83;21.62;98764.72;5016397;28;20139;-77
2022/08/29 09:15:02;;;;;;;29.85;4.78;;;;;;;34.01;21.36;98778.13;5034085;28;20147;-76
2022/08/29 09:17:40;;;;;;;24.55;3.90;;;;;;;35.21;19.90;98780.88;5001763;28;20044;-74
2022/08/29 09:20:15;;;;;;;22.05;4.10;;;;;;;37.88;17.15;98781.06;5017836;28;20041;-73
2022/08/29 09:22:44;;;;;;;31.27;4.07;;;;;;;41.72;13.96;98778.50;5050439;28;20048;-74
2022/08/29 09:25:11;;;;;;;23.52;3.90;;;;;;;43.71;11.66;98786.53;5018036;28;20044;-75
2022/08/29 09:27:37;;;;;;;26.02;3.63;;;;;;;45.33;10.79;98784.31;5001697;28;20083;-74
2022/08/29 09:30:16;;;;;;;25.80;4.18;;;;;;;45.76;10.10;98846.63;5018979;28;20064;-74
2022/08/29 09:32:56;;;;;;;36.63;4.78;;;;;;;43.62;11.22;98802.91;5002140;28;20087;-74
2022/08/29 09:35:30;;;;;;;44.38;4.00;;;;;;;43.72;11.75;98799.31;5017210;28;20455;-74
2022/08/29 09:38:00;;;;;;;23.05;3.50;;;;;;;43.52;11.75;98766.53;5001543;28;20045;-75
2022/08/29 09:40:42;;;;;;;25.83;3.67;;;;;;;44.25;11.02;98768.56;5050899;28;20052;-72
2022/08/29 09:43:16;;;;;;;32.95;4.13;;;;;;;44.57;10.60;98788.94;5033527;28;20047;-72
2022/08/29 09:46:05;;;;;;;39.75;3.88;;;;;;;45.81;10.03;98773.22;5033829;28;20064;-73
2022/08/29 09:48:31;;;;;;;36.55;3.83;;;;;;;46.25;9.72;98784.50;5001204;28;20052;-73
2022/08/29 09:51:27;;;;;;;68.13;5.93;;;;;;;43.65;11.17;98785.31;5050264;28;20041;-72
2022/08/29 09:54:25;;;;;;;33.65;4.13;;;;;;;44.77;10.40;98778.09;5009482;28;20044;-73
2022/08/29 09:57:12;;;;;;;32.60;4.25;;;;;;;47.02;9.06;98786.53;5016869;28;20087;-72
2022/08/29 09:59:43;;;;;;;33.28;4.03;;;;;;;47.65;8.54;98776.44;5016077;28;20076;-73
2022/08/29 10:02:48;;;;;;;26.65;3.63;;;;;;;47.15;8.96;98787.56;5033283;28;20044;-71
2022/08/29 10:05:33;;;;;;;21.80;4.20;;;;;;;45.66;9.99;98788.53;4998531;28;20515;-71
2022/08/29 10:08:00;;;;;;;38.53;4.60;;;;;;;44.30;11.12;98763.38;4999510;28;20048;-73
2022/08/29 10:10:29;;;;;;;40.63;5.47;;;;;;;43.02;11.84;98762.72;5016674;28;20061;-72
2022/08/29 10:12:59;;;;;;;44.67;4.80;;;;;;;43.58;11.89;98760.13;5016068;28;20424;-71
2022/08/29 10:15:35;;;;;;;47.67;5.63;;;;;;;43.64;11.60;98777.31;5033029;28;20536;-70
2022/08/29 10:18:26;;;;;;;31.77;5.25;;;;;;;44.03;11.11;98798.56;5033754;28;20131;-73
2022/08/29 10:20:54;;;;;;;38.35;4.00;;;;;;;45.02;10.69;98792.84;5016318;28;20056;-71
2022/08/29 10:23:25;;;;;;;32.55;4.30;;;;;;;45.15;10.57;98774.41;5016394;28;20102;-72
2022/08/29 10:25:51;;;;;;;28.67;3.70;;;;;;;44.38;11.25;98820.19;4999826;28;20045;-71
2022/08/29 10:28:45;;;;;;;37.17;4.53;;;;;;;42.30;12.71;98801.78;4999902;28;20041;-73
2022/08/29 10:31:36;;;;;;;28.27;4.05;;;;;;;40.73;13.98;98811.91;5016191;28;20072;-72
2022/08/29 10:34:30;;;;;;;42.42;3.90;;;;;;;39.28;15.22;98796.59;5032611;28;20041;-74
2022/08/29 10:37:00;;;;;;;27.17;4.25;;;;;;;39.34;15.94;98795.94;5033364;28;20049;-72
2022/08/29 10:39:38;;;;;;;34.15;4.80;;;;;;;37.12;17.83;98778.53;5032704;28;20044;-73
2022/08/29 10:42:14;;;;;;;38.53;4.60;;;;;;;37.35;17.79;98803.72;5032885;28;20045;-72
2022/08/29 10:44:58;;;;;;;22.42;3.75;;;;;;;36.96;17.89;98769.38;5032267;28;20051;-73
2022/08/29 10:47:31;;;;;;;27.58;3.72;;;;;;;37.61;17.77;98820.72;5016141;28;20041;-72
2022/08/29 10:50:05;;;;;;;27.30;3.92;;;;;;;38.05;16.96;98780.69;5031999;28;20071;-73
2022/08/29 10:52:39;;;;;;;22.42;5.20;;;;;;;36.22;19.27;98801.38;5024872;28;20068;-73
2022/08/29 10:55:41;;;;;;;30.55;4.55;;;;;;;34.94;20.96;98871.72;4998980;28;20103;-73
2022/08/29 10:58:28;;;;;;;20.70;4.40;;;;;;;33.35;22.85;98841.31;4996429;28;20037;-74
2022/08/29 11:01:02;;;;;;;24.55;4.10;;;;;;;32.75;24.08;98821.22;5013875;28;20041;-74
2022/08/29 11:03:40;;;;;;;20.23;4.38;;;;;;;32.88;24.44;98801.81;5000034;28;20057;-76
2022/08/29 11:06:18;;;;;;;23.23;4.30;;;;;;;34.23;22.81;98791.66;5049156;28;20527;-72
2022/08/29 11:09:09;;;;;;;21.52;4.28;;;;;;;35.23;21.63;98797.94;4998517;28;20110;-73
2022/08/29 11:11:37;;;;;;;23.42;3.90;;;;;;;34.99;21.86;98814.41;5031087;28;20048;-73
2022/08/29 11:14:07;;;;;;;23.50;4.10;;;;;;;34.68;22.58;98816.69;5031385;28;20124;-74
2022/08/29 11:16:42;;;;;;;21.25;4.13;;;;;;;34.55;22.30;98834.34;5015272;28;20385;-71
2022/08/29 11:19:10;;;;;;;23.38;3.92;;;;;;;33.40;23.66;98821.91;4998520;28;20045;-73
2022/08/29 11:22:14;;;;;;;21.25;4.10;;;;;;;32.40;24.90;98895.38;4998552;28;20524;-72
2022/08/29 11:24:41;;;;;;;20.75;4.53;;;;;;;31.68;25.73;98830.81;5031027;28;20461;-73
2022/08/29 11:27:06;;;;;;;30.17;3.97;;;;;;;31.37;26.25;98840.16;4998802;28;20135;-72
2022/08/29 11:29:45;;;;;;;19.33;3.45;;;;;;;31.51;26.10;98835.38;5014985;28;20065;-72
2022/08/29 11:32:31;;;;;;;26.25;4.45;;;;;;;31.47;26.70;98837.97;4998502;28;20575;-75
2022/08/29 11:35:22;;;;;;;20.98;4.10;;;;;;;31.86;26.38;98853.72;4998787;28;20040;-72
2022/08/29 11:37:56;;;;;;;20.50;4.32;;;;;;;31.52;26.79;98868.03;5031732;28;20605;-73